sensor_id;sensor_type;location;lat;lon;timestamp;pressure;altitude;pressure_sealevel;temperature;humidity
54870;BME280;40756;-37.950;145.008;2023-04-06T00:01:40;100926.28;;;21.38;42.73
54870;BME280;40756;-37.950;145.008;2023-04-06T00:04:09;100920.87;;;21.24;43.40
54870;BME280;40756;-37.950;145.008;2023-04-06T00:06:38;100920.52;;;21.41;42.70
54870;BME280;40756;-37.950;145.008;2023-04-06T00:09:08;100915.00;;;21.48;42.65
54870;BME280;40756;-37.950;145.008;2023-04-06T00:11:38;100909.04;;;21.59;42.21
54870;BME280;40756;-37.950;145.008;2023-04-06T00:14:07;100903.32;;;21.94;43.01
54870;BME280;40756;-37.950;145.008;2023-04-06T00:16:37;100902.95;;;21.36;42.60
54870;BME280;40756;-37.950;145.008;2023-04-06T00:19:06;100904.80;;;21.47;41.75
54870;BME280;40756;-37.950;145.008;2023-04-06T00:21:36;100899.04;;;21.65;41.33
54870;BME280;40756;-37.950;145.008;2023-04-06T00:24:06;100898.02;;;22.14;41.40
54870;BME280;40756;-37.950;145.008;2023-04-06T00:26:35;100887.13;;;21.88;41.58
54870;BME280;40756;-37.950;145.008;2023-04-06T00:29:06;100879.82;;;22.11;41.48
54870;BME280;40756;-37.950;145.008;2023-04-06T00:31:35;100878.42;;;22.34;41.00
54870;BME280;40756;-37.950;145.008;2023-04-06T00:34:05;100874.18;;;22.33;41.11
54870;BME280;40756;-37.950;145.008;2023-04-06T00:36:35;100875.76;;;22.65;40.37
54870;BME280;40756;-37.950;145.008;2023-04-06T00:39:05;100871.04;;;22.59;40.26
54870;BME280;40756;-37.950;145.008;2023-04-06T00:41:34;100866.34;;;22.56;40.64
54870;BME280;40756;-37.950;145.008;2023-04-06T00:44:04;100857.30;;;22.78;40.00
54870;BME280;40756;-37.950;145.008;2023-04-06T00:46:33;100854.82;;;22.76;40.12
54870;BME280;40756;-37.950;145.008;2023-04-06T00:49:03;100850.22;;;22.47;39.62
54870;BME280;40756;-37.950;145.008;2023-04-06T00:51:32;100848.42;;;23.15;38.80
54870;BME280;40756;-37.950;145.008;2023-04-06T00:54:02;100845.60;;;23.06;38.64
54870;BME280;40756;-37.950;145.008;2023-04-06T00:56:32;100842.81;;;23.04;39.12
54870;BME280;40756;-37.950;145.008;2023-04-06T00:59:01;100833.82;;;23.56;38.85
54870;BME280;40756;-37.950;145.008;2023-04-06T01:01:31;100830.09;;;23.61;38.91
54870;BME280;40756;-37.950;145.008;2023-04-06T01:04:01;100827.06;;;23.11;37.14
54870;BME280;40756;-37.950;145.008;2023-04-06T01:06:30;100823.01;;;23.80;37.98
54870;BME280;40756;-37.950;145.008;2023-04-06T01:08:59;100819.59;;;24.11;36.92
54870;BME280;40756;-37.950;145.008;2023-04-06T01:11:28;100814.16;;;24.37;36.72
54870;BME280;40756;-37.950;145.008;2023-04-06T01:13:58;100810.18;;;24.27;36.12
54870;BME280;40756;-37.950;145.008;2023-04-06T01:16:28;100810.46;;;24.44;35.91
54870;BME280;40756;-37.950;145.008;2023-04-06T01:18:58;100805.92;;;24.49;35.03
54870;BME280;40756;-37.950;145.008;2023-04-06T01:21:27;100797.12;;;24.85;35.32
54870;BME280;40756;-37.950;145.008;2023-04-06T01:23:57;100794.86;;;25.03;35.24
54870;BME280;40756;-37.950;145.008;2023-04-06T01:26:26;100789.77;;;24.83;34.66
54870;BME280;40756;-37.950;145.008;2023-04-06T01:28:56;100784.36;;;25.01;35.09
54870;BME280;40756;-37.950;145.008;2023-04-06T01:31:27;100781.43;;;24.68;34.03
54870;BME280;40756;-37.950;145.008;2023-04-06T01:33:57;100777.92;;;24.70;35.78
54870;BME280;40756;-37.950;145.008;2023-04-06T01:36:26;100768.05;;;25.05;35.63
54870;BME280;40756;-37.950;145.008;2023-04-06T01:38:56;100768.62;;;24.42;34.29
54870;BME280;40756;-37.950;145.008;2023-04-06T01:41:26;100761.06;;;24.36;34.12
54870;BME280;40756;-37.950;145.008;2023-04-06T01:43:55;100759.60;;;24.70;36.55
54870;BME280;40756;-37.950;145.008;2023-04-06T01:46:24;100751.38;;;24.08;35.50
54870;BME280;40756;-37.950;145.008;2023-04-06T01:48:53;100738.79;;;24.74;35.16
54870;BME280;40756;-37.950;145.008;2023-04-06T01:51:23;100734.26;;;25.10;34.88
54870;BME280;40756;-37.950;145.008;2023-04-06T01:53:53;100725.95;;;25.30;34.19
54870;BME280;40756;-37.950;145.008;2023-04-06T01:56:23;100720.06;;;25.19;34.20
54870;BME280;40756;-37.950;145.008;2023-04-06T01:58:53;100715.00;;;24.06;34.28
54870;BME280;40756;-37.950;145.008;2023-04-06T02:01:23;100704.98;;;24.76;34.13
54870;BME280;40756;-37.950;145.008;2023-04-06T02:03:52;100703.35;;;24.73;32.95
54870;BME280;40756;-37.950;145.008;2023-04-06T02:06:22;100703.55;;;25.65;33.42
54870;BME280;40756;-37.950;145.008;2023-04-06T02:08:52;100697.22;;;25.24;33.45
54870;BME280;40756;-37.950;145.008;2023-04-06T02:11:22;100689.80;;;25.23;33.13
54870;BME280;40756;-37.950;145.008;2023-04-06T02:13:51;100688.72;;;25.11;32.88
54870;BME280;40756;-37.950;145.008;2023-04-06T02:16:21;100683.40;;;25.71;31.65
54870;BME280;40756;-37.950;145.008;2023-04-06T02:18:50;100676.72;;;25.66;31.73
54870;BME280;40756;-37.950;145.008;2023-04-06T02:21:19;100673.46;;;26.00;31.90
54870;BME280;40756;-37.950;145.008;2023-04-06T02:23:49;100669.45;;;26.31;30.09
54870;BME280;40756;-37.950;145.008;2023-04-06T02:26:18;100665.05;;;26.45;29.99
54870;BME280;40756;-37.950;145.008;2023-04-06T02:28:47;100664.43;;;27.39;30.00
54870;BME280;40756;-37.950;145.008;2023-04-06T02:31:17;100660.48;;;26.68;29.75
54870;BME280;40756;-37.950;145.008;2023-04-06T02:33:47;100654.53;;;27.55;27.97
54870;BME280;40756;-37.950;145.008;2023-04-06T02:36:17;100646.01;;;28.12;27.85
54870;BME280;40756;-37.950;145.008;2023-04-06T02:38:46;100641.54;;;28.21;26.58
54870;BME280;40756;-37.950;145.008;2023-04-06T02:41:15;100637.91;;;28.49;26.95
54870;BME280;40756;-37.950;145.008;2023-04-06T02:43:45;100630.57;;;29.57;24.91
54870;BME280;40756;-37.950;145.008;2023-04-06T02:46:14;100628.33;;;29.83;24.53
54870;BME280;40756;-37.950;145.008;2023-04-06T02:48:44;100615.77;;;29.93;24.73
54870;BME280;40756;-37.950;145.008;2023-04-06T02:51:14;100617.30;;;30.54;24.42
54870;BME280;40756;-37.950;145.008;2023-04-06T02:53:43;100609.33;;;30.99;22.15
54870;BME280;40756;-37.950;145.008;2023-04-06T02:56:13;100608.61;;;30.84;23.42
54870;BME280;40756;-37.950;145.008;2023-04-06T02:58:42;100606.58;;;30.35;22.01
54870;BME280;40756;-37.950;145.008;2023-04-06T03:01:12;100604.20;;;30.79;22.11
54870;BME280;40756;-37.950;145.008;2023-04-06T03:03:41;100600.53;;;30.95;22.88
54870;BME280;40756;-37.950;145.008;2023-04-06T03:06:11;100601.12;;;31.43;22.70
54870;BME280;40756;-37.950;145.008;2023-04-06T03:08:41;100597.08;;;29.74;22.18
54870;BME280;40756;-37.950;145.008;2023-04-06T03:11:10;100595.13;;;29.98;21.51
54870;BME280;40756;-37.950;145.008;2023-04-06T03:13:40;100592.74;;;30.30;21.79
54870;BME280;40756;-37.950;145.008;2023-04-06T03:16:09;100587.73;;;30.35;22.44
54870;BME280;40756;-37.950;145.008;2023-04-06T03:18:39;100579.08;;;28.98;22.58
54870;BME280;40756;-37.950;145.008;2023-04-06T03:21:09;100578.45;;;29.09;24.67
54870;BME280;40756;-37.950;145.008;2023-04-06T03:23:38;100576.69;;;28.97;24.44
54870;BME280;40756;-37.950;145.008;2023-04-06T03:26:07;100573.10;;;28.48;23.66
54870;BME280;40756;-37.950;145.008;2023-04-06T03:28:37;100572.79;;;28.45;26.03
54870;BME280;40756;-37.950;145.008;2023-04-06T03:31:06;100565.84;;;27.64;24.84
54870;BME280;40756;-37.950;145.008;2023-04-06T03:33:36;100561.98;;;27.36;26.13
54870;BME280;40756;-37.950;145.008;2023-04-06T03:36:07;100558.41;;;27.34;23.96
54870;BME280;40756;-37.950;145.008;2023-04-06T03:38:36;100546.47;;;27.87;24.04
54870;BME280;40756;-37.950;145.008;2023-04-06T03:41:05;100546.63;;;27.38;26.44
54870;BME280;40756;-37.950;145.008;2023-04-06T03:43:34;100542.81;;;26.71;26.05
54870;BME280;40756;-37.950;145.008;2023-04-06T03:46:04;100538.23;;;26.72;25.42
54870;BME280;40756;-37.950;145.008;2023-04-06T03:48:34;100535.96;;;26.76;26.15
54870;BME280;40756;-37.950;145.008;2023-04-06T03:51:04;100527.56;;;26.77;25.82
54870;BME280;40756;-37.950;145.008;2023-04-06T03:53:33;100529.29;;;26.86;26.24
54870;BME280;40756;-37.950;145.008;2023-04-06T03:56:03;100524.64;;;26.65;26.03
54870;BME280;40756;-37.950;145.008;2023-04-06T03:58:32;100518.45;;;26.05;27.10
54870;BME280;40756;-37.950;145.008;2023-04-06T04:01:02;100513.05;;;26.75;26.74
54870;BME280;40756;-37.950;145.008;2023-04-06T04:03:32;100510.06;;;26.57;26.90
54870;BME280;40756;-37.950;145.008;2023-04-06T04:06:02;100507.77;;;26.65;26.89
54870;BME280;40756;-37.950;145.008;2023-04-06T04:08:31;100501.41;;;26.52;26.88
54870;BME280;40756;-37.950;145.008;2023-04-06T04:11:01;100501.19;;;26.81;27.62
54870;BME280;40756;-37.950;145.008;2023-04-06T04:13:30;100499.46;;;26.73;27.44
54870;BME280;40756;-37.950;145.008;2023-04-06T04:16:00;100494.13;;;26.53;27.85
54870;BME280;40756;-37.950;145.008;2023-04-06T04:18:29;100495.10;;;26.63;27.28
54870;BME280;40756;-37.950;145.008;2023-04-06T04:20:58;100495.20;;;27.21;27.09
54870;BME280;40756;-37.950;145.008;2023-04-06T04:23:28;100495.32;;;26.95;28.01
54870;BME280;40756;-37.950;145.008;2023-04-06T04:25:57;100495.58;;;26.65;26.84
54870;BME280;40756;-37.950;145.008;2023-04-06T04:28:27;100492.68;;;26.97;26.86
54870;BME280;40756;-37.950;145.008;2023-04-06T04:30:56;100491.57;;;26.78;27.15
54870;BME280;40756;-37.950;145.008;2023-04-06T04:33:26;100488.06;;;27.27;26.81
54870;BME280;40756;-37.950;145.008;2023-04-06T04:35:56;100488.94;;;26.87;26.35
54870;BME280;40756;-37.950;145.008;2023-04-06T04:38:26;100481.90;;;27.03;27.24
54870;BME280;40756;-37.950;145.008;2023-04-06T04:40:56;100481.28;;;27.12;25.78
54870;BME280;40756;-37.950;145.008;2023-04-06T04:43:25;100478.42;;;26.87;26.97
54870;BME280;40756;-37.950;145.008;2023-04-06T04:45:55;100475.51;;;26.80;27.73
54870;BME280;40756;-37.950;145.008;2023-04-06T04:48:24;100469.58;;;26.67;26.31
54870;BME280;40756;-37.950;145.008;2023-04-06T04:50:53;100471.03;;;26.66;28.29
54870;BME280;40756;-37.950;145.008;2023-04-06T04:53:23;100465.33;;;26.69;27.43
54870;BME280;40756;-37.950;145.008;2023-04-06T04:55:52;100467.41;;;25.83;28.55
54870;BME280;40756;-37.950;145.008;2023-04-06T04:58:21;100462.07;;;26.36;27.33
54870;BME280;40756;-37.950;145.008;2023-04-06T05:00:51;100458.82;;;26.41;27.78
54870;BME280;40756;-37.950;145.008;2023-04-06T05:03:25;100458.41;;;26.30;27.72
54870;BME280;40756;-37.950;145.008;2023-04-06T05:05:55;100453.73;;;26.30;27.75
54870;BME280;40756;-37.950;145.008;2023-04-06T05:08:25;100460.25;;;25.50;28.80
54870;BME280;40756;-37.950;145.008;2023-04-06T05:10:54;100456.30;;;25.97;28.25
54870;BME280;40756;-37.950;145.008;2023-04-06T05:13:24;100453.89;;;26.03;27.58
54870;BME280;40756;-37.950;145.008;2023-04-06T05:15:54;100453.95;;;25.83;28.22
54870;BME280;40756;-37.950;145.008;2023-04-06T05:18:24;100455.09;;;26.57;26.79
54870;BME280;40756;-37.950;145.008;2023-04-06T05:20:53;100455.17;;;26.34;26.39
54870;BME280;40756;-37.950;145.008;2023-04-06T05:23:23;100456.21;;;25.71;26.18
54870;BME280;40756;-37.950;145.008;2023-04-06T05:25:53;100453.31;;;25.79;25.83
54870;BME280;40756;-37.950;145.008;2023-04-06T05:28:23;100448.48;;;25.82;25.92
54870;BME280;40756;-37.950;145.008;2023-04-06T05:30:53;100446.09;;;25.97;25.91
54870;BME280;40756;-37.950;145.008;2023-04-06T05:33:23;100442.41;;;25.79;26.71
54870;BME280;40756;-37.950;145.008;2023-04-06T05:35:53;100441.65;;;25.18;26.74
54870;BME280;40756;-37.950;145.008;2023-04-06T05:38:23;100439.42;;;25.82;26.70
54870;BME280;40756;-37.950;145.008;2023-04-06T05:40:53;100438.47;;;25.85;27.44
54870;BME280;40756;-37.950;145.008;2023-04-06T05:43:22;100435.40;;;25.33;27.80
54870;BME280;40756;-37.950;145.008;2023-04-06T05:45:52;100431.44;;;25.17;28.27
54870;BME280;40756;-37.950;145.008;2023-04-06T05:48:21;100429.32;;;25.18;28.40
54870;BME280;40756;-37.950;145.008;2023-04-06T05:50:50;100429.17;;;25.65;27.55
54870;BME280;40756;-37.950;145.008;2023-04-06T05:53:20;100424.70;;;25.17;27.45
54870;BME280;40756;-37.950;145.008;2023-04-06T05:55:50;100426.77;;;25.95;27.65
54870;BME280;40756;-37.950;145.008;2023-04-06T05:58:20;100424.46;;;25.79;27.65
54870;BME280;40756;-37.950;145.008;2023-04-06T06:00:49;100421.04;;;25.54;28.03
54870;BME280;40756;-37.950;145.008;2023-04-06T06:03:20;100419.03;;;25.72;29.57
54870;BME280;40756;-37.950;145.008;2023-04-06T06:05:49;100417.64;;;25.95;29.65
54870;BME280;40756;-37.950;145.008;2023-04-06T06:08:19;100416.62;;;25.73;29.62
54870;BME280;40756;-37.950;145.008;2023-04-06T06:10:49;100414.66;;;25.69;29.56
54870;BME280;40756;-37.950;145.008;2023-04-06T06:13:19;100411.59;;;26.08;29.07
54870;BME280;40756;-37.950;145.008;2023-04-06T06:15:49;100409.13;;;25.80;28.70
54870;BME280;40756;-37.950;145.008;2023-04-06T06:18:19;100404.84;;;25.80;29.96
54870;BME280;40756;-37.950;145.008;2023-04-06T06:20:49;100408.13;;;25.73;28.91
54870;BME280;40756;-37.950;145.008;2023-04-06T06:23:18;100402.68;;;25.33;28.80
54870;BME280;40756;-37.950;145.008;2023-04-06T06:25:48;100399.80;;;25.87;29.72
54870;BME280;40756;-37.950;145.008;2023-04-06T06:28:17;100400.46;;;25.68;29.43
54870;BME280;40756;-37.950;145.008;2023-04-06T06:30:46;100400.71;;;25.82;30.34
54870;BME280;40756;-37.950;145.008;2023-04-06T06:33:16;100402.06;;;25.70;30.49
54870;BME280;40756;-37.950;145.008;2023-04-06T06:35:45;100400.52;;;25.52;30.99
54870;BME280;40756;-37.950;145.008;2023-04-06T06:38:15;100401.04;;;25.50;30.78
54870;BME280;40756;-37.950;145.008;2023-04-06T06:40:46;100402.99;;;25.60;29.89
54870;BME280;40756;-37.950;145.008;2023-04-06T06:43:16;100404.87;;;25.73;29.60
54870;BME280;40756;-37.950;145.008;2023-04-06T06:45:46;100408.73;;;25.45;30.12
54870;BME280;40756;-37.950;145.008;2023-04-06T06:48:16;100405.11;;;25.20;30.19
54870;BME280;40756;-37.950;145.008;2023-04-06T06:50:45;100402.50;;;25.32;29.40
54870;BME280;40756;-37.950;145.008;2023-04-06T06:53:16;100402.85;;;25.26;29.84
54870;BME280;40756;-37.950;145.008;2023-04-06T06:55:45;100402.13;;;25.05;30.82
54870;BME280;40756;-37.950;145.008;2023-04-06T06:58:15;100400.99;;;24.99;30.78
54870;BME280;40756;-37.950;145.008;2023-04-06T07:00:44;100405.33;;;24.75;30.21
54870;BME280;40756;-37.950;145.008;2023-04-06T07:03:13;100402.71;;;25.23;30.45
54870;BME280;40756;-37.950;145.008;2023-04-06T07:05:47;100401.47;;;24.81;29.86
54870;BME280;40756;-37.950;145.008;2023-04-06T07:08:17;100407.80;;;24.89;30.11
54870;BME280;40756;-37.950;145.008;2023-04-06T07:10:46;100408.36;;;25.19;30.23
54870;BME280;40756;-37.950;145.008;2023-04-06T07:13:16;100405.97;;;24.84;29.44
54870;BME280;40756;-37.950;145.008;2023-04-06T07:15:46;100411.08;;;25.03;29.45
54870;BME280;40756;-37.950;145.008;2023-04-06T07:18:16;100410.25;;;25.13;29.88
54870;BME280;40756;-37.950;145.008;2023-04-06T07:20:45;100410.97;;;25.38;29.28
54870;BME280;40756;-37.950;145.008;2023-04-06T07:23:15;100411.06;;;24.67;29.78
54870;BME280;40756;-37.950;145.008;2023-04-06T07:25:44;100412.17;;;24.85;30.46
54870;BME280;40756;-37.950;145.008;2023-04-06T07:28:14;100409.75;;;24.62;30.76
54870;BME280;40756;-37.950;145.008;2023-04-06T07:30:44;100403.51;;;24.77;30.30
54870;BME280;40756;-37.950;145.008;2023-04-06T07:33:13;100403.54;;;25.10;31.71
54870;BME280;40756;-37.950;145.008;2023-04-06T07:35:42;100406.63;;;24.78;30.39
54870;BME280;40756;-37.950;145.008;2023-04-06T07:38:12;100402.60;;;24.74;30.18
54870;BME280;40756;-37.950;145.008;2023-04-06T07:40:41;100403.05;;;24.97;30.93
54870;BME280;40756;-37.950;145.008;2023-04-06T07:43:11;100409.27;;;24.86;31.24
54870;BME280;40756;-37.950;145.008;2023-04-06T07:45:42;100410.24;;;24.80;31.06
54870;BME280;40756;-37.950;145.008;2023-04-06T07:48:11;100409.68;;;24.52;30.98
54870;BME280;40756;-37.950;145.008;2023-04-06T07:50:41;100403.90;;;24.51;30.78
54870;BME280;40756;-37.950;145.008;2023-04-06T07:53:10;100405.62;;;24.37;30.36
54870;BME280;40756;-37.950;145.008;2023-04-06T07:55:40;100414.03;;;24.29;30.83
54870;BME280;40756;-37.950;145.008;2023-04-06T07:58:09;100417.57;;;24.41;30.05
54870;BME280;40756;-37.950;145.008;2023-04-06T08:00:39;100416.80;;;24.48;29.72
54870;BME280;40756;-37.950;145.008;2023-04-06T08:03:08;100422.25;;;24.86;31.10
54870;BME280;40756;-37.950;145.008;2023-04-06T08:05:38;100421.85;;;24.72;30.41
54870;BME280;40756;-37.950;145.008;2023-04-06T08:08:07;100429.98;;;25.01;31.72
54870;BME280;40756;-37.950;145.008;2023-04-06T08:10:37;100429.56;;;25.01;29.80
54870;BME280;40756;-37.950;145.008;2023-04-06T08:13:07;100437.97;;;24.85;30.77
54870;BME280;40756;-37.950;145.008;2023-04-06T08:15:37;100437.76;;;24.80;30.22
54870;BME280;40756;-37.950;145.008;2023-04-06T08:18:06;100443.04;;;24.59;30.89
54870;BME280;40756;-37.950;145.008;2023-04-06T08:20:35;100442.20;;;24.42;31.26
54870;BME280;40756;-37.950;145.008;2023-04-06T08:23:05;100449.33;;;24.75;31.22
54870;BME280;40756;-37.950;145.008;2023-04-06T08:25:37;100450.64;;;24.51;32.76
54870;BME280;40756;-37.950;145.008;2023-04-06T08:28:06;100446.26;;;24.31;32.89
54870;BME280;40756;-37.950;145.008;2023-04-06T08:30:36;100447.75;;;24.28;33.24
54870;BME280;40756;-37.950;145.008;2023-04-06T08:33:05;100445.65;;;24.13;33.27
54870;BME280;40756;-37.950;145.008;2023-04-06T08:35:34;100447.01;;;23.88;33.20
54870;BME280;40756;-37.950;145.008;2023-04-06T08:38:04;100448.17;;;24.51;34.08
54870;BME280;40756;-37.950;145.008;2023-04-06T08:40:38;100447.96;;;24.32;34.90
54870;BME280;40756;-37.950;145.008;2023-04-06T08:43:12;100450.91;;;23.91;34.37
54870;BME280;40756;-37.950;145.008;2023-04-06T08:45:43;100454.53;;;23.89;34.37
54870;BME280;40756;-37.950;145.008;2023-04-06T08:48:13;100455.60;;;24.01;35.11
54870;BME280;40756;-37.950;145.008;2023-04-06T08:50:44;100458.70;;;24.10;35.00
54870;BME280;40756;-37.950;145.008;2023-04-06T08:53:13;100461.05;;;23.79;35.78
54870;BME280;40756;-37.950;145.008;2023-04-06T08:55:45;100463.15;;;23.60;36.14
54870;BME280;40756;-37.950;145.008;2023-04-06T08:58:15;100463.37;;;23.43;36.48
54870;BME280;40756;-37.950;145.008;2023-04-06T09:00:44;100466.29;;;23.75;35.73
54870;BME280;40756;-37.950;145.008;2023-04-06T09:03:15;100471.05;;;23.62;35.99
54870;BME280;40756;-37.950;145.008;2023-04-06T09:05:46;100474.74;;;23.58;35.94
54870;BME280;40756;-37.950;145.008;2023-04-06T09:08:16;100480.10;;;23.28;35.23
54870;BME280;40756;-37.950;145.008;2023-04-06T09:10:46;100481.28;;;23.28;35.36
54870;BME280;40756;-37.950;145.008;2023-04-06T09:13:20;100481.82;;;22.93;35.79
54870;BME280;40756;-37.950;145.008;2023-04-06T09:16:00;100482.70;;;22.60;36.07
54870;BME280;40756;-37.950;145.008;2023-04-06T09:18:32;100481.07;;;22.76;35.97
54870;BME280;40756;-37.950;145.008;2023-04-06T09:21:04;100480.58;;;23.07;35.88
54870;BME280;40756;-37.950;145.008;2023-04-06T09:23:34;100482.70;;;23.37;35.80
54870;BME280;40756;-37.950;145.008;2023-04-06T09:26:08;100481.73;;;23.55;35.76
54870;BME280;40756;-37.950;145.008;2023-04-06T09:28:44;100483.34;;;23.13;36.42
54870;BME280;40756;-37.950;145.008;2023-04-06T09:31:14;100478.34;;;22.78;35.96
54870;BME280;40756;-37.950;145.008;2023-04-06T09:33:45;100478.46;;;23.17;36.11
54870;BME280;40756;-37.950;145.008;2023-04-06T09:36:14;100479.43;;;23.18;35.92
54870;BME280;40756;-37.950;145.008;2023-04-06T09:39:01;100481.80;;;22.99;36.05
54870;BME280;40756;-37.950;145.008;2023-04-06T09:41:33;100487.70;;;23.02;36.49
54870;BME280;40756;-37.950;145.008;2023-04-06T09:44:04;100489.58;;;23.01;36.84
54870;BME280;40756;-37.950;145.008;2023-04-06T09:46:37;100491.44;;;22.86;36.23
54870;BME280;40756;-37.950;145.008;2023-04-06T09:49:08;100483.34;;;22.42;37.32
54870;BME280;40756;-37.950;145.008;2023-04-06T09:51:40;100481.70;;;22.78;36.34
54870;BME280;40756;-37.950;145.008;2023-04-06T09:54:10;100478.22;;;23.16;36.36
54870;BME280;40756;-37.950;145.008;2023-04-06T09:56:47;100479.64;;;23.10;36.37
54870;BME280;40756;-37.950;145.008;2023-04-06T09:59:23;100482.86;;;23.18;36.52
54870;BME280;40756;-37.950;145.008;2023-04-06T10:01:57;100483.36;;;23.36;37.45
54870;BME280;40756;-37.950;145.008;2023-04-06T10:04:33;100488.69;;;23.09;37.28
54870;BME280;40756;-37.950;145.008;2023-04-06T10:07:07;100492.73;;;23.05;38.51
54870;BME280;40756;-37.950;145.008;2023-04-06T10:09:39;100494.88;;;22.62;39.97
54870;BME280;40756;-37.950;145.008;2023-04-06T10:12:09;100495.85;;;23.01;39.45
54870;BME280;40756;-37.950;145.008;2023-04-06T10:14:39;100491.69;;;22.92;39.77
54870;BME280;40756;-37.950;145.008;2023-04-06T10:17:08;100496.14;;;22.55;41.23
54870;BME280;40756;-37.950;145.008;2023-04-06T10:19:44;100498.89;;;22.39;40.42
54870;BME280;40756;-37.950;145.008;2023-04-06T10:22:24;100504.35;;;22.01;42.55
54870;BME280;40756;-37.950;145.008;2023-04-06T10:24:55;100518.28;;;20.94;44.25
54870;BME280;40756;-37.950;145.008;2023-04-06T10:27:31;100520.02;;;21.03;44.17
54870;BME280;40756;-37.950;145.008;2023-04-06T10:30:04;100524.59;;;21.53;44.58
54870;BME280;40756;-37.950;145.008;2023-04-06T10:32:35;100526.27;;;21.48;44.94
54870;BME280;40756;-37.950;145.008;2023-04-06T10:35:10;100526.02;;;20.56;45.34
54870;BME280;40756;-37.950;145.008;2023-04-06T10:38:06;100524.20;;;21.04;46.02
54870;BME280;40756;-37.950;145.008;2023-04-06T10:40:38;100523.66;;;21.24;45.96
54870;BME280;40756;-37.950;145.008;2023-04-06T10:43:12;100526.37;;;21.23;46.51
54870;BME280;40756;-37.950;145.008;2023-04-06T10:45:42;100531.80;;;20.90;47.12
54870;BME280;40756;-37.950;145.008;2023-04-06T10:48:16;100527.33;;;20.67;48.03
54870;BME280;40756;-37.950;145.008;2023-04-06T10:50:48;100529.07;;;20.14;49.98
54870;BME280;40756;-37.950;145.008;2023-04-06T10:53:23;100529.42;;;20.59;49.80
54870;BME280;40756;-37.950;145.008;2023-04-06T10:55:55;100528.06;;;19.83;51.14
54870;BME280;40756;-37.950;145.008;2023-04-06T10:58:27;100528.80;;;20.13;51.30
54870;BME280;40756;-37.950;145.008;2023-04-06T11:00:57;100529.20;;;19.99;51.60
54870;BME280;40756;-37.950;145.008;2023-04-06T11:03:26;100520.88;;;20.36;52.29
54870;BME280;40756;-37.950;145.008;2023-04-06T11:05:56;100517.75;;;19.83;53.58
54870;BME280;40756;-37.950;145.008;2023-04-06T11:08:29;100519.46;;;19.44;54.80
54870;BME280;40756;-37.950;145.008;2023-04-06T11:11:07;100523.78;;;20.07;53.89
54870;BME280;40756;-37.950;145.008;2023-04-06T11:13:42;100528.23;;;19.40;54.81
54870;BME280;40756;-37.950;145.008;2023-04-06T11:16:16;100537.25;;;18.55;55.74
54870;BME280;40756;-37.950;145.008;2023-04-06T11:18:51;100536.37;;;19.16;54.73
54870;BME280;40756;-37.950;145.008;2023-04-06T11:21:32;100535.03;;;19.51;54.98
54870;BME280;40756;-37.950;145.008;2023-04-06T11:24:11;100528.75;;;19.25;54.89
54870;BME280;40756;-37.950;145.008;2023-04-06T11:26:43;100526.12;;;19.58;55.69
54870;BME280;40756;-37.950;145.008;2023-04-06T11:29:15;100520.70;;;19.34;56.01
54870;BME280;40756;-37.950;145.008;2023-04-06T11:31:48;100522.71;;;19.07;55.73
54870;BME280;40756;-37.950;145.008;2023-04-06T11:34:20;100518.38;;;19.11;55.95
54870;BME280;40756;-37.950;145.008;2023-04-06T11:36:55;100515.52;;;19.04;56.65
54870;BME280;40756;-37.950;145.008;2023-04-06T11:39:26;100515.11;;;19.43;56.41
54870;BME280;40756;-37.950;145.008;2023-04-06T11:41:57;100511.16;;;19.30;56.63
54870;BME280;40756;-37.950;145.008;2023-04-06T11:44:31;100510.88;;;19.04;56.72
54870;BME280;40756;-37.950;145.008;2023-04-06T11:47:03;100504.27;;;19.06;56.95
54870;BME280;40756;-37.950;145.008;2023-04-06T11:49:36;100497.39;;;19.41;57.24
54870;BME280;40756;-37.950;145.008;2023-04-06T11:52:16;100495.62;;;18.95;57.23
54870;BME280;40756;-37.950;145.008;2023-04-06T11:54:46;100489.78;;;18.94;57.29
54870;BME280;40756;-37.950;145.008;2023-04-06T11:57:16;100478.77;;;19.55;57.03
54870;BME280;40756;-37.950;145.008;2023-04-06T11:59:47;100474.41;;;19.28;57.23
54870;BME280;40756;-37.950;145.008;2023-04-06T12:02:17;100464.25;;;19.20;57.49
54870;BME280;40756;-37.950;145.008;2023-04-06T12:04:46;100456.89;;;19.01;57.84
54870;BME280;40756;-37.950;145.008;2023-04-06T12:07:16;100454.75;;;19.23;57.77
54870;BME280;40756;-37.950;145.008;2023-04-06T12:09:45;100448.73;;;19.24;57.60
54870;BME280;40756;-37.950;145.008;2023-04-06T12:12:15;100444.72;;;19.00;57.55
54870;BME280;40756;-37.950;145.008;2023-04-06T12:14:45;100435.48;;;19.08;57.96
54870;BME280;40756;-37.950;145.008;2023-04-06T12:17:14;100431.60;;;18.75;57.82
54870;BME280;40756;-37.950;145.008;2023-04-06T12:19:44;100424.28;;;19.19;57.58
54870;BME280;40756;-37.950;145.008;2023-04-06T12:22:13;100420.51;;;18.96;57.62
54870;BME280;40756;-37.950;145.008;2023-04-06T12:24:44;100412.57;;;18.95;57.61
54870;BME280;40756;-37.950;145.008;2023-04-06T12:27:13;100403.80;;;18.55;58.77
54870;BME280;40756;-37.950;145.008;2023-04-06T12:29:43;100394.71;;;18.76;58.37
54870;BME280;40756;-37.950;145.008;2023-04-06T12:32:12;100388.76;;;18.80;58.31
54870;BME280;40756;-37.950;145.008;2023-04-06T12:34:42;100383.10;;;18.98;58.41
54870;BME280;40756;-37.950;145.008;2023-04-06T12:37:12;100382.56;;;18.61;58.18